TimeCAT,TemperatureF,Dew PointF,Humidity,Sea Level PressureIn,VisibilityMPH,Wind Direction,Wind SpeedMPH,Gust SpeedMPH,PrecipitationIn,Events,Conditions,WindDirDegrees,DateUTC
2:00 AM,61,30,20,,6,ESE,6.9,,,,Haze,120,2013-09-01 00:00:00
2:00 AM,60.8,30.2,31,30.09,-9999.0,ESE,6.9,-,N/A,,Clear,120,2013-09-01 00:00:00
3:00 AM,59.0,30.2,34,30.09,-9999.0,ESE,3.5,-,N/A,,Clear,120,2013-09-01 01:00:00
5:00 AM,53.6,30.2,41,30.12,-9999.0,East,4.6,-,N/A,,Clear,90,2013-09-01 03:00:00
6:00 AM,55.4,30.2,38,30.12,-9999.0,ESE,3.5,-,N/A,,Clear,120,2013-09-01 04:00:00
8:00 AM,62,31,20,,6,ESE,5.8,,,,Haze,110,2013-09-01 06:00:00
8:00 AM,62.6,32.0,32,30.18,-9999.0,ESE,5.8,-,N/A,,Clear,110,2013-09-01 06:00:00
9:00 AM,69.8,35.6,28,30.18,-9999.0,ESE,6.9,-,N/A,,Clear,120,2013-09-01 07:00:00
10:00 AM,77.0,44.6,32,30.18,-9999.0,ENE,12.7,-,N/A,,Clear,60,2013-09-01 08:00:00
11:00 AM,78.8,42.8,28,30.18,-9999.0,NE,16.1,-,N/A,,Clear,40,2013-09-01 09:00:00
12:00 PM,80.6,41.0,24,30.15,-9999.0,NNE,15.0,-,N/A,,Clear,30,2013-09-01 10:00:00
1:00 PM,82.4,41.0,23,30.12,-9999.0,NNE,15.0,-,N/A,,Clear,30,2013-09-01 11:00:00
2:00 PM,83,41,13,,6,NNE,10.4,,,,Haze,20,2013-09-01 12:00:00
2:00 PM,82.4,41.0,23,30.12,-9999.0,NNE,10.4,-,N/A,,Clear,20,2013-09-01 12:00:00
3:00 PM,82.4,41.0,23,30.12,-9999.0,NNE,8.1,-,N/A,,Clear,20,2013-09-01 13:00:00
4:00 PM,82.4,42.8,25,30.12,-9999.0,East,9.2,-,N/A,,Clear,100,2013-09-01 14:00:00
5:00 PM,80.6,42.8,26,30.12,-9999.0,ENE,6.9,-,N/A,,Clear,60,2013-09-01 15:00:00
6:00 PM,75.2,42.8,31,30.15,2.5,ENE,8.1,-,N/A,,Haze,60,2013-09-01 16:00:00
8:00 PM,72,44,25,,2,South,4.6,,,,Haze,180,2013-09-01 18:00:00
8:00 PM,73.4,44.6,36,30.18,2.5,South,4.6,-,N/A,,Haze,180,2013-09-01 18:00:00
9:00 PM,68.0,32.0,26,30.21,2.5,SE,8.1,-,N/A,,Haze,130,2013-09-01 19:00:00
10:00 PM,62.6,35.6,37,30.24,2.5,SE,8.1,-,N/A,,Haze,130,2013-09-01 20:00:00
11:00 PM,60.8,42.8,52,30.24,2.5,ESE,8.1,-,N/A,,Haze,120,2013-09-01 21:00:00